createdAt,value
2017-09-08T00:01:49.327Z,59.00
2017-09-08T00:04:16.839Z,58.90
2017-09-08T00:06:44.359Z,58.80
2017-09-08T00:09:11.889Z,58.80
2017-09-08T00:11:39.404Z,58.70
2017-09-08T00:14:07.238Z,58.80
2017-09-08T00:16:34.735Z,58.70
2017-09-08T00:19:02.239Z,58.60
2017-09-08T00:21:29.774Z,59.20
2017-09-08T00:23:58.062Z,58.40
2017-09-08T00:26:25.993Z,58.40
2017-09-08T00:28:53.512Z,58.40
2017-09-08T00:31:21.022Z,58.30
2017-09-08T00:33:48.580Z,58.30
2017-09-08T00:36:16.083Z,58.00
2017-09-08T00:38:43.964Z,57.90
2017-09-08T00:41:11.491Z,57.70
2017-09-08T00:43:39.770Z,57.70
2017-09-08T00:46:08.071Z,57.70
2017-09-08T00:48:35.593Z,57.70
2017-09-08T00:51:03.423Z,57.60
2017-09-08T00:53:30.932Z,57.50
2017-09-08T00:55:59.208Z,57.40
2017-09-08T00:58:27.525Z,57.30
2017-09-08T01:00:55.063Z,57.30
2017-09-08T01:03:22.972Z,57.30
2017-09-08T01:05:50.486Z,57.20
2017-09-08T01:08:18.757Z,57.30
2017-09-08T01:10:47.099Z,57.40
2017-09-08T01:13:14.630Z,57.40
2017-09-08T01:15:42.449Z,57.50
2017-09-08T01:18:09.958Z,57.40
2017-09-08T01:20:37.486Z,57.30
2017-09-08T01:23:05.804Z,57.50
2017-09-08T01:25:33.318Z,57.40
2017-09-08T01:28:01.941Z,57.60
2017-09-08T01:30:29.471Z,57.60
2017-09-08T01:32:57.740Z,57.90
2017-09-08T01:35:26.053Z,58.00
2017-09-08T01:37:53.561Z,58.10
2017-09-08T01:40:21.506Z,58.20
2017-09-08T01:42:49.018Z,58.10
2017-09-08T01:45:16.550Z,58.20
2017-09-08T01:47:44.893Z,58.30
2017-09-08T01:50:12.406Z,58.20
2017-09-08T01:52:41.027Z,58.30
2017-09-08T01:55:08.538Z,58.30
2017-09-08T01:57:36.045Z,58.40
2017-09-08T02:00:03.693Z,59.20
2017-09-08T02:02:31.211Z,58.70
2017-09-08T02:04:59.166Z,58.80
2017-09-08T02:07:26.696Z,58.90
2017-09-08T02:09:54.215Z,58.90
2017-09-08T02:12:22.547Z,58.80
2017-09-08T02:14:50.099Z,58.80
2017-09-08T02:17:18.169Z,58.90
2017-09-08T02:19:45.681Z,59.00
2017-09-08T02:22:13.952Z,59.50
2017-09-08T02:24:41.486Z,59.30
2017-09-08T02:27:09.012Z,59.40
2017-09-08T02:29:36.817Z,59.50
2017-09-08T02:32:04.339Z,59.60
2017-09-08T02:34:31.854Z,59.50
2017-09-08T02:36:59.386Z,59.60
2017-09-08T02:39:26.902Z,59.50
2017-09-08T02:41:54.697Z,59.50
2017-09-08T02:44:22.228Z,59.40
2017-09-08T02:46:49.728Z,59.40
2017-09-08T02:49:17.256Z,59.40
2017-09-08T02:51:44.779Z,59.30
2017-09-08T02:54:12.689Z,59.40
2017-09-08T02:56:40.194Z,59.30
2017-09-08T02:59:07.762Z,59.30
2017-09-08T03:01:35.286Z,59.30
2017-09-08T03:04:02.795Z,59.40
2017-09-08T03:06:31.363Z,59.40
2017-09-08T03:08:58.883Z,59.40
2017-09-08T03:11:26.548Z,59.50
2017-09-08T03:13:54.082Z,59.50
2017-09-08T03:16:21.607Z,59.50
2017-09-08T03:18:49.428Z,59.60
2017-09-08T03:21:16.934Z,59.60
2017-09-08T03:27:01.387Z,59.50
2017-09-08T03:29:29.359Z,59.50
2017-09-08T03:31:56.880Z,59.50
2017-09-08T03:34:24.394Z,59.50
2017-09-08T03:36:53.022Z,60.10
2017-09-08T03:39:20.524Z,59.50
2017-09-08T03:41:48.038Z,59.50
2017-09-08T03:44:16.644Z,59.50
2017-09-08T03:46:44.158Z,59.40
2017-09-08T03:49:11.678Z,59.40
2017-09-08T03:51:39.543Z,59.50
2017-09-08T03:54:07.056Z,59.40
2017-09-08T03:56:35.343Z,59.30
2017-09-08T03:59:03.896Z,59.40
2017-09-08T04:01:31.422Z,59.40
2017-09-08T04:03:58.926Z,59.30
2017-09-08T04:06:26.740Z,59.40
2017-09-08T04:08:54.260Z,59.40
2017-09-08T04:11:22.554Z,59.20
2017-09-08T04:13:50.870Z,59.10
2017-09-08T04:16:18.393Z,59.10
2017-09-08T04:18:46.684Z,59.00
2017-09-08T04:21:14.374Z,59.00
2017-09-08T04:23:41.893Z,59.00
2017-09-08T04:26:10.172Z,59.00
2017-09-08T04:28:37.721Z,59.00
2017-09-08T04:31:05.234Z,59.00
2017-09-08T04:33:32.747Z,59.00
2017-09-08T04:36:00.544Z,59.00
2017-09-08T04:38:28.077Z,59.00
2017-09-08T04:40:55.578Z,59.00
2017-09-08T04:43:23.393Z,59.00
2017-09-08T04:45:53.577Z,59.10
2017-09-08T04:48:21.096Z,59.10
2017-09-08T04:50:48.651Z,59.10
2017-09-08T04:53:16.225Z,59.10
2017-09-08T04:55:43.744Z,59.20
2017-09-08T04:58:11.287Z,59.10
2017-09-08T05:00:38.818Z,59.10
2017-09-08T05:03:06.346Z,59.10
2017-09-08T05:05:33.897Z,59.10
2017-09-08T05:08:02.187Z,59.20
2017-09-08T05:10:29.711Z,59.30
2017-09-08T05:12:57.259Z,59.30
2017-09-08T05:15:24.763Z,59.30
2017-09-08T05:17:52.292Z,59.40
2017-09-08T05:20:20.108Z,59.40
2017-09-08T05:22:47.629Z,59.40
2017-09-08T05:25:15.920Z,59.70
2017-09-08T05:31:47.296Z,59.50
2017-09-08T05:34:15.233Z,59.30
2017-09-08T05:36:43.003Z,59.40
2017-09-08T05:39:10.548Z,60.30
2017-09-08T05:41:38.153Z,59.50
2017-09-08T05:44:06.453Z,59.40
2017-09-08T05:46:34.292Z,59.40
2017-09-08T05:49:01.842Z,59.50
2017-09-08T05:51:30.135Z,59.70
2017-09-08T05:53:58.448Z,59.20
2017-09-08T05:56:25.989Z,59.20
2017-09-08T05:58:53.893Z,59.20
2017-09-08T06:01:21.413Z,59.30
2017-09-08T06:03:49.685Z,59.20
2017-09-08T06:06:17.236Z,59.30
2017-09-08T06:08:45.556Z,59.40
2017-09-08T06:11:13.374Z,59.30
2017-09-08T06:13:41.673Z,59.30
2017-09-08T06:16:09.199Z,59.30
2017-09-08T06:18:36.783Z,59.30
2017-09-08T06:21:05.071Z,59.00
2017-09-08T06:23:32.984Z,59.10
2017-09-08T06:26:00.530Z,59.00
2017-09-08T06:28:28.066Z,59.00
2017-09-08T06:30:55.640Z,58.90
2017-09-08T06:33:23.184Z,58.80
2017-09-08T06:35:51.015Z,58.90
2017-09-08T06:38:18.646Z,58.80
2017-09-08T06:40:46.163Z,58.90
2017-09-08T06:43:14.476Z,58.80
2017-09-08T06:45:42.017Z,58.80
2017-09-08T06:48:09.845Z,58.70
2017-09-08T06:50:38.476Z,58.60
2017-09-08T06:53:05.994Z,58.40
2017-09-08T06:55:33.556Z,58.40
2017-09-08T06:58:01.872Z,58.10
2017-09-08T07:00:29.667Z,58.00
2017-09-08T07:02:57.198Z,57.90
2017-09-08T07:05:24.741Z,57.70
2017-09-08T07:07:53.092Z,57.50
2017-09-08T07:10:20.625Z,57.50
2017-09-08T07:12:48.446Z,57.40
2017-09-08T07:15:16.728Z,57.10
2017-09-08T07:17:44.970Z,57.10
2017-09-08T07:20:12.545Z,57.20
2017-09-08T07:22:40.066Z,57.20
2017-09-08T07:25:07.947Z,57.20
2017-09-08T07:27:35.500Z,57.30
2017-09-08T07:30:03.026Z,57.50
2017-09-08T07:32:30.616Z,57.30
2017-09-08T07:34:58.157Z,57.40
2017-09-08T07:37:26.032Z,57.20
2017-09-08T07:39:53.626Z,57.10
2017-09-08T07:42:21.158Z,57.30
2017-09-08T07:44:48.713Z,57.20
2017-09-08T07:47:16.276Z,57.10
2017-09-08T07:49:44.103Z,57.10
2017-09-08T07:52:12.383Z,57.00
2017-09-08T07:54:39.936Z,57.00
2017-09-08T07:57:07.515Z,57.00
2017-09-08T07:59:35.046Z,57.00
2017-09-08T08:02:02.972Z,56.90
2017-09-08T08:04:30.483Z,56.40
2017-09-08T08:06:58.757Z,56.10
2017-09-08T08:09:26.336Z,56.00
2017-09-08T08:11:54.144Z,56.40
2017-09-08T08:14:21.986Z,55.60
2017-09-08T08:16:49.493Z,55.00
2017-09-08T08:19:17.015Z,54.40
2017-09-08T08:21:44.562Z,53.70
2017-09-08T08:24:12.068Z,53.40
2017-09-08T08:26:39.937Z,52.80
2017-09-08T08:29:07.574Z,53.00
2017-09-08T08:31:35.090Z,52.70
2017-09-08T08:34:03.469Z,52.20
2017-09-08T08:36:31.758Z,52.00
2017-09-08T08:38:59.556Z,51.90
2017-09-08T08:41:27.086Z,52.00
2017-09-08T08:43:55.362Z,52.60
2017-09-08T08:46:22.934Z,51.60
2017-09-08T08:48:50.460Z,51.40
2017-09-08T08:51:19.096Z,52.00
2017-09-08T08:53:47.389Z,51.30
2017-09-08T08:56:14.977Z,51.20
2017-09-08T08:58:43.305Z,51.10
2017-09-08T09:01:10.814Z,51.10
2017-09-08T09:03:38.732Z,51.00
2017-09-08T09:06:06.250Z,50.70
2017-09-08T09:08:33.765Z,51.10
2017-09-08T09:11:01.306Z,50.30
2017-09-08T09:13:28.832Z,50.00
2017-09-08T09:15:57.416Z,49.60
2017-09-08T09:18:25.697Z,49.40
2017-09-08T09:20:54.003Z,49.20
2017-09-08T09:23:21.592Z,49.20
2017-09-08T09:25:49.124Z,49.60
2017-09-08T09:28:16.956Z,49.40
2017-09-08T09:30:44.486Z,49.20
2017-09-08T09:33:12.015Z,49.10
2017-09-08T09:35:39.565Z,48.90
2017-09-08T09:38:07.108Z,49.00
2017-09-08T09:40:34.950Z,48.80
2017-09-08T09:43:02.454Z,48.60
2017-09-08T09:45:29.982Z,48.70
2017-09-08T09:47:57.514Z,48.70
2017-09-08T09:50:25.033Z,48.70
2017-09-08T09:52:52.839Z,48.40
2017-09-08T09:55:20.342Z,48.30
2017-09-08T09:57:49.587Z,47.80
2017-09-08T10:00:17.122Z,47.70
2017-09-08T10:02:44.654Z,47.90
2017-09-08T10:05:13.295Z,47.70
2017-09-08T10:07:41.314Z,47.70
2017-09-08T10:10:09.626Z,47.80
2017-09-08T10:12:37.193Z,47.80
2017-09-08T10:15:04.732Z,47.90
2017-09-08T10:17:32.623Z,48.10
2017-09-08T10:20:00.164Z,48.00
2017-09-08T10:22:27.686Z,47.80
2017-09-08T10:24:55.238Z,47.80
2017-09-08T10:27:22.764Z,47.70
2017-09-08T10:29:50.629Z,47.40
2017-09-08T10:32:18.137Z,47.40
2017-09-08T10:34:45.663Z,46.80
2017-09-08T10:37:13.223Z,46.30
2017-09-08T10:39:40.751Z,45.80
2017-09-08T10:42:08.569Z,45.70
2017-09-08T10:44:36.092Z,45.50
2017-09-08T10:47:03.599Z,45.40
2017-09-08T10:49:31.922Z,45.30
2017-09-08T10:51:59.437Z,44.70
2017-09-08T10:54:27.237Z,44.60
2017-09-08T10:56:54.751Z,44.30
2017-09-08T10:59:22.276Z,44.50
2017-09-08T11:01:49.854Z,44.90
2017-09-08T11:04:17.364Z,45.20
2017-09-08T11:06:45.180Z,45.30
2017-09-08T11:09:12.743Z,45.00
2017-09-08T11:11:40.261Z,44.40
2017-09-08T11:14:07.811Z,44.00
2017-09-08T11:16:36.088Z,44.00
2017-09-08T11:19:04.719Z,44.10
2017-09-08T11:21:32.238Z,44.10
2017-09-08T11:24:00.527Z,44.00
2017-09-08T11:26:28.082Z,44.00
2017-09-08T11:28:55.600Z,43.80
2017-09-08T11:31:23.440Z,43.80
2017-09-08T11:33:56.736Z,43.80
2017-09-08T11:36:30.235Z,44.20
2017-09-08T11:38:57.786Z,44.00
2017-09-08T11:41:25.309Z,44.10
2017-09-08T11:43:52.878Z,43.90
2017-09-08T11:46:20.411Z,43.80
2017-09-08T11:48:49.052Z,43.50
2017-09-08T11:51:16.619Z,43.50
2017-09-08T11:53:44.130Z,43.60
2017-09-08T11:56:11.695Z,43.60
2017-09-08T11:58:40.000Z,43.80
2017-09-08T12:01:07.875Z,43.90
2017-09-08T12:03:35.404Z,43.90
2017-09-08T12:06:03.689Z,43.70
2017-09-08T12:08:31.239Z,43.60
2017-09-08T12:10:58.749Z,43.50
2017-09-08T12:13:26.631Z,43.50
2017-09-08T12:15:54.951Z,42.50
2017-09-08T12:18:22.490Z,42.20
2017-09-08T12:20:50.059Z,41.70
2017-09-08T12:23:18.345Z,40.40
2017-09-08T12:25:46.267Z,40.20
2017-09-08T12:28:13.815Z,39.50
2017-09-08T12:30:41.353Z,39.00
2017-09-08T12:33:08.889Z,38.60
2017-09-08T12:35:36.402Z,38.20
2017-09-08T12:38:04.262Z,37.30
2017-09-08T12:40:31.808Z,36.90
2017-09-08T12:42:59.339Z,36.50
2017-09-08T12:45:27.668Z,35.80
2017-09-08T12:47:55.201Z,35.80
2017-09-08T12:50:23.065Z,35.90
2017-09-08T12:52:52.253Z,36.10
2017-09-08T12:55:19.806Z,37.00
2017-09-08T12:57:48.831Z,37.50
2017-09-08T13:00:16.379Z,37.50
2017-09-08T13:02:44.258Z,38.00
2017-09-08T13:05:11.788Z,37.90
2017-09-08T13:07:39.306Z,38.20
2017-09-08T13:10:06.849Z,38.50
2017-09-08T13:12:34.395Z,39.00
2017-09-08T13:15:02.212Z,39.40
2017-09-08T13:17:29.719Z,39.90
2017-09-08T13:19:57.239Z,40.10
2017-09-08T13:22:24.903Z,40.10
2017-09-08T13:24:53.211Z,40.70
2017-09-08T13:27:21.030Z,40.80
2017-09-08T13:29:48.795Z,40.80
2017-09-08T13:32:16.857Z,41.00
2017-09-08T13:34:44.427Z,41.00
2017-09-08T13:37:11.970Z,40.80
2017-09-08T13:39:39.854Z,41.00
2017-09-08T13:42:07.380Z,41.10
2017-09-08T13:44:34.907Z,41.30
2017-09-08T13:47:03.228Z,41.20
2017-09-08T13:49:30.736Z,41.20
2017-09-08T13:51:58.544Z,41.10
2017-09-08T13:54:26.062Z,41.50
2017-09-08T13:56:53.572Z,41.50
2017-09-08T13:59:21.133Z,41.50
2017-09-08T14:01:49.549Z,41.50
2017-09-08T14:04:17.339Z,41.70
2017-09-08T14:06:45.642Z,42.10
2017-09-08T14:09:13.203Z,42.00
2017-09-08T14:11:40.777Z,42.20
2017-09-08T14:14:08.304Z,42.30
2017-09-08T14:16:36.948Z,42.60
2017-09-08T14:19:04.468Z,42.50
2017-09-08T14:21:32.898Z,42.90
2017-09-08T14:24:00.435Z,43.10
2017-09-08T14:26:27.964Z,43.10
2017-09-08T14:28:55.959Z,43.20
2017-09-08T14:31:23.511Z,43.40
2017-09-08T14:33:51.026Z,43.40
2017-09-08T14:36:18.593Z,43.70
2017-09-08T14:38:46.174Z,43.90
2017-09-08T14:41:14.072Z,44.00
2017-09-08T14:43:41.610Z,44.10
2017-09-08T14:46:09.139Z,44.30
2017-09-08T14:48:37.463Z,44.60
2017-09-08T14:51:05.002Z,44.60
2017-09-08T14:53:33.600Z,44.80
2017-09-08T14:56:01.110Z,44.90
2017-09-08T14:58:28.673Z,44.80
2017-09-08T15:00:57.019Z,45.00
2017-09-08T15:03:24.556Z,45.00
2017-09-08T15:05:52.440Z,45.20
2017-09-08T15:08:20.763Z,45.30
2017-09-08T15:10:48.282Z,45.40
2017-09-08T15:13:15.838Z,45.90
2017-09-08T15:15:43.375Z,45.30
2017-09-08T15:18:11.180Z,45.10
2017-09-08T15:20:38.723Z,45.10
2017-09-08T15:23:06.255Z,45.20
2017-09-08T15:25:35.760Z,45.00
2017-09-08T15:28:03.276Z,45.10
2017-09-08T15:30:31.132Z,45.20
2017-09-08T15:32:58.647Z,45.20
2017-09-08T15:35:26.192Z,45.30
2017-09-08T15:37:54.684Z,45.40
2017-09-08T15:40:22.982Z,45.50
2017-09-08T15:42:50.882Z,45.50
2017-09-08T15:45:19.309Z,45.60
2017-09-08T15:47:46.847Z,45.40
2017-09-08T15:50:14.376Z,45.30
2017-09-08T15:52:41.914Z,45.20
2017-09-08T15:55:09.793Z,45.20
2017-09-08T15:57:37.305Z,45.00
2017-09-08T16:00:05.602Z,45.50
2017-09-08T16:02:41.110Z,44.90
2017-09-08T16:05:08.787Z,44.90
2017-09-08T16:07:37.411Z,45.00
2017-09-08T16:10:04.923Z,45.00
2017-09-08T16:12:32.448Z,45.00
2017-09-08T16:15:00.003Z,45.10
2017-09-08T16:17:27.512Z,45.10
2017-09-08T16:19:59.455Z,45.00
2017-09-08T16:22:32.735Z,45.00
2017-09-08T16:25:00.580Z,45.20
2017-09-08T16:27:28.147Z,45.20
2017-09-08T16:29:55.682Z,45.10
2017-09-08T16:32:23.233Z,45.10
2017-09-08T16:34:51.532Z,45.20
2017-09-08T16:37:19.418Z,45.20
2017-09-08T16:39:46.923Z,45.20
2017-09-08T16:42:14.470Z,45.30
2017-09-08T16:44:42.017Z,45.40
2017-09-08T16:47:09.756Z,45.40
2017-09-08T16:49:37.588Z,45.40
2017-09-08T16:52:05.878Z,45.50
2017-09-08T16:54:33.406Z,45.50
2017-09-08T16:57:00.968Z,45.50
2017-09-08T16:59:28.525Z,45.50
2017-09-08T17:01:56.357Z,45.60
2017-09-08T17:04:23.883Z,45.80
2017-09-08T17:06:52.222Z,46.00
2017-09-08T17:09:19.814Z,46.00
2017-09-08T17:11:48.111Z,46.40
2017-09-08T17:14:15.917Z,46.30
2017-09-08T17:16:44.287Z,46.50
2017-09-08T17:19:11.816Z,46.50
2017-09-08T17:21:39.373Z,46.50
2017-09-08T17:24:07.656Z,46.80
2017-09-08T17:26:35.469Z,46.70
2017-09-08T17:29:02.993Z,46.80
2017-09-08T17:31:30.541Z,46.90
2017-09-08T17:33:58.075Z,47.00
2017-09-08T17:36:26.380Z,47.10
2017-09-08T17:38:54.276Z,47.10
2017-09-08T17:41:21.847Z,47.10
2017-09-08T17:43:49.392Z,47.20
2017-09-08T17:46:16.945Z,47.20
2017-09-08T17:48:44.470Z,47.30
2017-09-08T17:51:13.227Z,47.30
2017-09-08T17:53:40.732Z,47.30
2017-09-08T17:56:08.267Z,47.40
2017-09-08T17:58:35.872Z,47.50
2017-09-08T18:01:04.132Z,47.70
2017-09-08T18:03:32.042Z,47.70
2017-09-08T18:05:59.588Z,47.90
2017-09-08T18:08:27.144Z,48.00
2017-09-08T18:10:56.624Z,48.10
2017-09-08T18:13:24.912Z,48.30
2017-09-08T18:15:52.838Z,48.30
2017-09-08T18:18:20.362Z,48.60
2017-09-08T18:20:47.888Z,48.70
2017-09-08T18:23:15.468Z,48.70
2017-09-08T18:25:42.993Z,48.90
2017-09-08T18:28:11.643Z,49.00
2017-09-08T18:30:39.160Z,49.00
2017-09-08T18:33:06.698Z,49.10
2017-09-08T18:35:35.019Z,49.30
2017-09-08T18:38:02.552Z,49.30
2017-09-08T18:40:31.169Z,49.40
2017-09-08T18:42:59.064Z,49.50
2017-09-08T18:45:26.601Z,49.60
2017-09-08T18:47:54.179Z,49.60
2017-09-08T18:50:21.732Z,49.70
2017-09-08T18:52:49.600Z,49.70
2017-09-08T18:55:17.163Z,49.90
2017-09-08T18:57:44.719Z,49.80
2017-09-08T19:00:12.329Z,50.00
2017-09-08T19:02:40.652Z,50.20
2017-09-08T19:05:08.543Z,50.20
2017-09-08T19:07:43.359Z,50.30
2017-09-08T19:10:11.220Z,50.40
2017-09-08T19:12:38.870Z,50.70
2017-09-08T19:15:09.423Z,50.80
2017-09-08T19:17:37.165Z,50.80
2017-09-08T19:20:04.759Z,51.00
2017-09-08T19:22:32.633Z,51.10
2017-09-08T19:25:00.153Z,51.20
2017-09-08T19:27:27.674Z,51.30
2017-09-08T19:29:55.232Z,51.30
2017-09-08T19:32:22.786Z,51.40
2017-09-08T19:34:52.455Z,51.70
2017-09-08T19:37:24.976Z,51.80
2017-09-08T19:42:38.784Z,51.80
2017-09-08T19:45:15.937Z,51.90
2017-09-08T19:47:43.549Z,51.90
2017-09-08T19:50:11.419Z,51.90
2017-09-08T19:52:38.943Z,52.00
2017-09-08T19:57:57.040Z,52.10
2017-09-08T20:00:24.598Z,52.20
2017-09-08T20:02:52.731Z,52.30
2017-09-08T20:05:22.214Z,52.40
2017-09-08T20:07:50.524Z,53.00
2017-09-08T20:10:19.022Z,52.60
2017-09-08T20:12:46.540Z,52.80
2017-09-08T20:15:15.108Z,52.80
2017-09-08T20:17:42.629Z,52.80
2017-09-08T20:20:10.163Z,52.80
2017-09-08T20:22:38.531Z,52.90
2017-09-08T20:25:07.383Z,53.00
2017-09-08T20:27:46.131Z,53.00
2017-09-08T20:30:13.652Z,52.90
2017-09-08T20:32:41.512Z,52.80
2017-09-08T20:35:09.023Z,52.80
2017-09-08T20:37:36.551Z,52.90
2017-09-08T20:40:04.103Z,52.90
2017-09-08T20:42:35.928Z,53.00
2017-09-08T20:45:03.862Z,53.00
2017-09-08T20:47:31.748Z,53.70
2017-09-08T20:50:00.130Z,53.30
2017-09-08T20:52:27.720Z,53.90
2017-09-08T20:54:55.251Z,53.50
2017-09-08T20:57:23.090Z,53.50
2017-09-08T20:59:50.610Z,53.70
2017-09-08T21:02:18.135Z,53.70
2017-09-08T21:04:47.238Z,53.90
2017-09-08T21:07:15.559Z,54.00
2017-09-08T21:09:43.444Z,54.00
2017-09-08T21:12:11.057Z,54.10
2017-09-08T21:14:38.625Z,54.20
2017-09-08T21:17:06.224Z,54.20
2017-09-08T21:19:33.772Z,54.30
2017-09-08T21:22:01.756Z,54.40
2017-09-08T21:24:29.283Z,54.40
2017-09-08T21:26:56.841Z,54.50
2017-09-08T21:29:24.471Z,54.50
2017-09-08T21:31:52.039Z,54.60
2017-09-08T21:34:20.743Z,54.60
2017-09-08T21:36:48.310Z,54.60
2017-09-08T21:39:15.852Z,54.70
2017-09-08T21:41:43.415Z,54.70
2017-09-08T21:44:11.731Z,54.90
2017-09-08T21:46:39.734Z,55.00
2017-09-08T21:49:07.279Z,55.10
2017-09-08T21:51:34.795Z,55.10
2017-09-08T21:54:02.409Z,55.10
2017-09-08T21:56:39.879Z,55.20
2017-09-08T21:59:08.193Z,55.30
2017-09-08T22:01:35.715Z,55.30
2017-09-08T22:04:03.580Z,55.40
2017-09-08T22:06:31.128Z,55.40
2017-09-08T22:08:58.654Z,55.40
2017-09-08T22:11:26.213Z,55.50
2017-09-08T22:13:54.502Z,55.60
2017-09-08T22:16:23.071Z,55.60
2017-09-08T22:18:50.594Z,55.60
2017-09-08T22:21:19.141Z,55.70
2017-09-08T22:23:46.689Z,55.60
2017-09-08T22:26:15.007Z,55.80
2017-09-08T22:28:42.836Z,55.90
2017-09-08T22:31:11.127Z,55.90
2017-09-08T22:33:38.651Z,55.90
2017-09-08T22:36:06.216Z,56.00
2017-09-08T22:38:33.764Z,56.10
2017-09-08T22:41:01.565Z,56.20
2017-09-08T22:43:29.082Z,56.20
2017-09-08T22:45:56.609Z,56.20
2017-09-08T22:48:24.165Z,56.30
2017-09-08T22:50:51.685Z,56.40
2017-09-08T22:53:19.500Z,56.40
2017-09-08T22:55:47.037Z,56.30
2017-09-08T22:58:14.687Z,56.40
2017-09-08T23:00:42.271Z,56.60
2017-09-08T23:03:09.799Z,56.60
2017-09-08T23:05:38.425Z,56.60
2017-09-08T23:08:05.946Z,56.60
2017-09-08T23:10:33.485Z,56.60
2017-09-08T23:13:01.018Z,56.60
2017-09-08T23:15:28.571Z,56.70
2017-09-08T23:17:56.450Z,56.70
2017-09-08T23:20:24.004Z,56.70
2017-09-08T23:22:51.554Z,56.70
2017-09-08T23:25:19.119Z,56.70
2017-09-08T23:27:46.651Z,56.80
2017-09-08T23:30:15.227Z,56.80
2017-09-08T23:32:42.748Z,56.80
2017-09-08T23:35:10.262Z,56.90
2017-09-08T23:37:37.802Z,56.90
2017-09-08T23:40:06.098Z,57.10
2017-09-08T23:45:14.883Z,57.10
2017-09-08T23:47:42.722Z,57.20
2017-09-08T23:50:10.274Z,57.30
2017-09-08T23:52:37.803Z,57.30
2017-09-08T23:55:06.155Z,57.30
2017-09-08T23:57:37.901Z,57.40
